createdAt,value
2022-12-20T03:40:48.042Z,43.00
2022-12-20T03:41:32.869Z,53.00
2022-12-20T03:42:17.723Z,42.00
2022-12-20T03:43:03.899Z,42.00
2022-12-20T03:43:48.092Z,42.00
2022-12-20T03:44:35.497Z,42.00
2022-12-20T03:45:18.249Z,42.00
2022-12-20T03:46:03.872Z,42.00
2022-12-20T03:46:48.648Z,42.00
2022-12-20T03:47:33.220Z,45.00
2022-12-20T03:48:18.476Z,45.00
2022-12-20T03:49:03.853Z,45.00
2022-12-20T03:49:48.998Z,45.00
2022-12-20T03:50:36.416Z,45.00
2022-12-20T03:51:23.004Z,45.00
2022-12-20T03:52:08.406Z,45.00
2022-12-20T03:52:52.844Z,45.00
2022-12-20T03:53:36.733Z,45.00
2022-12-20T03:54:21.594Z,45.00
2022-12-20T03:55:06.548Z,45.00
2022-12-20T03:55:51.511Z,45.00
2022-12-20T03:56:35.254Z,45.00
2022-12-20T03:57:20.112Z,45.00
2022-12-20T03:58:05.545Z,45.00
2022-12-20T03:58:50.703Z,45.00
2022-12-20T03:59:34.326Z,45.00
2022-12-20T04:00:20.214Z,45.00
2022-12-20T04:01:05.391Z,45.00
2022-12-20T04:01:51.587Z,45.00
2022-12-20T04:02:34.541Z,45.00
2022-12-20T04:03:21.177Z,45.00
2022-12-20T04:04:05.595Z,45.00
2022-12-20T04:04:50.259Z,45.00
2022-12-20T04:05:35.075Z,45.00
2022-12-20T04:06:19.781Z,45.00
2022-12-20T04:07:05.825Z,45.00
2022-12-20T04:07:50.761Z,45.00
2022-12-20T04:08:34.904Z,45.00
2022-12-20T04:09:19.668Z,45.00
2022-12-20T04:10:04.808Z,45.00
2022-12-20T04:10:50.123Z,45.00
2022-12-20T04:11:35.328Z,45.00
2022-12-20T04:12:20.199Z,45.00
2022-12-20T04:13:05.043Z,45.00
2022-12-20T04:13:50.089Z,45.00
2022-12-20T04:14:35.199Z,45.00
2022-12-20T04:15:20.106Z,45.00
2022-12-20T04:16:05.482Z,45.00
2022-12-20T04:16:50.416Z,45.00
2022-12-20T04:17:36.116Z,45.00
2022-12-20T04:18:20.835Z,45.00
2022-12-20T04:19:05.493Z,45.00
2022-12-20T04:19:50.579Z,45.00
2022-12-20T04:20:35.700Z,45.00
2022-12-20T04:21:20.858Z,45.00
2022-12-20T04:22:06.480Z,45.00
2022-12-20T04:22:50.787Z,45.00
2022-12-20T04:23:35.960Z,45.00
2022-12-20T04:24:21.090Z,45.00
2022-12-20T04:25:05.952Z,45.00
2022-12-20T04:25:51.421Z,45.00
2022-12-20T04:26:36.155Z,45.00
2022-12-20T04:27:21.321Z,45.00
2022-12-20T04:28:06.956Z,45.00
2022-12-20T04:28:51.542Z,45.00
2022-12-20T04:29:37.002Z,45.00
2022-12-20T04:30:21.536Z,45.00
2022-12-20T04:31:06.713Z,45.00
2022-12-20T04:31:51.855Z,45.00
2022-12-20T04:32:36.910Z,45.00
2022-12-20T04:33:22.069Z,45.00
2022-12-20T04:34:07.125Z,45.00
2022-12-20T04:34:51.923Z,45.00
2022-12-20T04:35:37.050Z,45.00
2022-12-20T04:36:21.909Z,45.00
2022-12-20T04:37:07.042Z,45.00
2022-12-20T04:37:52.010Z,45.00
2022-12-20T04:38:37.677Z,45.00
2022-12-20T04:39:22.331Z,45.00
2022-12-20T04:40:07.390Z,45.00
2022-12-20T04:40:52.429Z,45.00
2022-12-20T04:41:37.611Z,45.00
2022-12-20T04:42:22.650Z,45.00
2022-12-20T04:43:07.477Z,45.00
2022-12-20T04:43:52.447Z,45.00
2022-12-20T04:44:37.613Z,45.00
2022-12-20T04:45:22.669Z,45.00
2022-12-20T04:46:07.543Z,45.00
2022-12-20T04:46:52.688Z,45.00
2022-12-20T04:47:37.834Z,45.00
2022-12-20T04:48:55.124Z,45.00
2022-12-20T04:49:07.636Z,45.00
2022-12-20T04:49:52.439Z,45.00
2022-12-20T04:50:37.559Z,45.00
2022-12-20T04:51:23.213Z,45.00
2022-12-20T04:52:07.841Z,45.00
2022-12-20T04:52:52.843Z,45.00
2022-12-20T04:53:38.399Z,45.00
2022-12-20T04:54:23.381Z,45.00
2022-12-20T04:55:08.299Z,45.00
2022-12-20T04:55:53.354Z,45.00
2022-12-20T04:56:38.406Z,45.00
2022-12-20T04:57:23.606Z,45.00
2022-12-20T04:58:08.767Z,45.00
2022-12-20T04:58:53.486Z,45.00
2022-12-20T04:59:38.527Z,45.00
2022-12-20T05:00:23.638Z,45.00
2022-12-20T05:01:08.456Z,45.00
2022-12-20T05:01:53.844Z,45.00
2022-12-20T05:02:39.255Z,45.00
2022-12-20T05:03:23.788Z,45.00
2022-12-20T05:04:08.597Z,45.00
2022-12-20T05:04:53.541Z,45.00
2022-12-20T05:05:38.570Z,45.00
2022-12-20T05:06:24.138Z,45.00
2022-12-20T05:07:09.452Z,45.00
2022-12-20T05:07:54.455Z,45.00
2022-12-20T05:08:39.520Z,45.00
2022-12-20T05:09:24.159Z,45.00
2022-12-20T05:10:09.407Z,45.00
2022-12-20T05:10:54.291Z,45.00
2022-12-20T05:11:39.478Z,45.00
2022-12-20T05:12:24.621Z,45.00
2022-12-20T05:13:09.632Z,45.00
2022-12-20T05:13:54.625Z,45.00
2022-12-20T05:14:39.761Z,45.00
2022-12-20T05:15:24.687Z,45.00
2022-12-20T05:16:09.840Z,45.00
2022-12-20T05:16:54.727Z,45.00
2022-12-20T05:17:39.679Z,45.00
2022-12-20T05:18:24.738Z,45.00
2022-12-20T05:19:09.795Z,45.00
2022-12-20T05:19:55.184Z,45.00
2022-12-20T05:20:45.759Z,45.00
2022-12-20T05:21:31.226Z,45.00
2022-12-20T05:22:10.155Z,45.00
2022-12-20T05:22:54.895Z,45.00
2022-12-20T05:23:39.934Z,45.00
2022-12-20T05:24:25.199Z,45.00
2022-12-20T05:25:09.981Z,45.00
2022-12-20T05:25:55.197Z,45.00
2022-12-20T05:26:40.846Z,45.00
2022-12-20T05:27:26.153Z,45.00
2022-12-20T05:28:11.405Z,45.00
2022-12-20T05:28:56.485Z,45.00
2022-12-20T05:29:42.330Z,45.00
2022-12-20T05:30:26.603Z,45.00
2022-12-20T05:31:11.461Z,45.00
2022-12-20T05:31:56.384Z,45.00
2022-12-20T05:32:40.840Z,45.00
2022-12-20T05:33:29.013Z,45.00
2022-12-20T05:34:11.334Z,45.00
2022-12-20T05:34:56.384Z,45.00
2022-12-20T05:35:41.455Z,45.00
2022-12-20T05:36:26.202Z,45.00
2022-12-20T05:37:10.742Z,45.00
2022-12-20T05:37:55.679Z,45.00
2022-12-20T05:38:41.240Z,45.00
2022-12-20T05:39:25.812Z,45.00
2022-12-20T05:40:10.876Z,45.00
2022-12-20T05:40:55.921Z,45.00
2022-12-20T05:41:41.187Z,45.00
2022-12-20T05:42:25.923Z,45.00
2022-12-20T05:43:11.131Z,45.00
2022-12-20T05:43:56.251Z,45.00
2022-12-20T05:44:41.225Z,45.00
2022-12-20T05:45:26.209Z,45.00
2022-12-20T05:46:11.413Z,45.00
2022-12-20T05:46:56.445Z,45.00
2022-12-20T05:47:41.578Z,45.00
2022-12-20T05:48:26.490Z,45.00
2022-12-20T05:49:11.643Z,45.00
2022-12-20T05:49:56.602Z,45.00
2022-12-20T05:50:41.785Z,45.00
2022-12-20T05:51:26.813Z,45.00
2022-12-20T05:52:11.915Z,45.00
2022-12-20T05:52:56.934Z,45.00
2022-12-20T05:53:41.896Z,45.00
2022-12-20T05:54:27.239Z,45.00
2022-12-20T05:55:12.932Z,45.00
2022-12-20T05:55:57.462Z,45.00
2022-12-20T05:56:42.413Z,45.00
2022-12-20T05:57:27.599Z,45.00
2022-12-20T05:58:12.346Z,45.00
2022-12-20T05:58:57.609Z,45.00
2022-12-20T05:59:42.681Z,45.00
2022-12-20T06:00:27.719Z,45.00
2022-12-20T06:01:21.948Z,0.00
2022-12-20T06:02:07.041Z,0.00
2022-12-20T06:02:51.592Z,0.00
2022-12-20T06:03:36.973Z,0.00
2022-12-20T06:04:21.829Z,0.00
2022-12-20T06:05:06.843Z,0.00
2022-12-20T06:05:51.800Z,0.00
2022-12-20T06:06:36.951Z,0.00
2022-12-20T06:07:21.846Z,0.00
2022-12-20T06:08:06.959Z,0.00
2022-12-20T06:08:52.192Z,0.00
2022-12-20T06:09:37.346Z,0.00
2022-12-20T06:10:22.186Z,0.00
2022-12-20T06:11:07.389Z,0.00
2022-12-20T06:11:52.677Z,0.00
2022-12-20T06:14:17.043Z,61.00
2022-12-20T06:15:01.596Z,53.00
2022-12-20T06:15:46.558Z,67.00
2022-12-20T06:16:31.608Z,79.00
2022-12-20T06:17:16.616Z,77.00
2022-12-20T06:18:01.401Z,84.00
2022-12-20T06:18:47.214Z,89.99
2022-12-20T06:19:31.721Z,83.00
2022-12-20T06:20:16.473Z,83.00
2022-12-20T06:21:01.515Z,89.00
2022-12-20T06:21:46.690Z,86.00
2022-12-20T06:22:31.639Z,91.00
2022-12-20T06:23:16.814Z,79.00
2022-12-20T06:24:01.783Z,89.99
2022-12-20T06:24:48.735Z,74.00
2022-12-20T06:25:31.766Z,77.99
2022-12-20T06:26:16.744Z,85.99
2022-12-20T06:27:01.682Z,93.99
2022-12-20T06:27:47.747Z,96.99
2022-12-20T06:28:31.680Z,93.99
2022-12-20T06:29:17.176Z,96.99
2022-12-20T06:30:02.303Z,98.99
2022-12-20T06:30:47.414Z,97.99
2022-12-20T06:31:32.001Z,96.99
2022-12-20T06:32:16.960Z,102.99
2022-12-20T06:33:02.234Z,103.99
2022-12-20T06:33:47.074Z,106.99
2022-12-20T06:34:32.235Z,106.99
2022-12-20T06:35:17.186Z,103.99
2022-12-20T06:36:02.270Z,103.99
2022-12-20T06:36:47.615Z,106.99
2022-12-20T06:37:32.332Z,107.99
2022-12-20T06:38:17.408Z,106.99
2022-12-20T06:39:07.638Z,98.99
2022-12-20T06:39:47.422Z,104.00
2022-12-20T06:40:32.800Z,106.00
2022-12-20T06:41:17.635Z,102.99
2022-12-20T06:42:02.797Z,109.99
2022-12-20T06:42:47.855Z,104.99
2022-12-20T06:43:32.966Z,89.99
2022-12-20T06:44:17.662Z,91.99
2022-12-20T06:45:03.042Z,94.99
2022-12-20T06:45:48.325Z,82.00
2022-12-20T06:46:33.201Z,90.99
2022-12-20T06:47:18.093Z,91.00
2022-12-20T06:48:03.041Z,97.00
2022-12-20T06:48:48.520Z,99.00
2022-12-20T06:49:33.698Z,98.00
2022-12-20T06:50:18.743Z,104.00
2022-12-20T06:51:03.733Z,112.99
2022-12-20T06:51:48.749Z,112.99
2022-12-20T06:52:33.516Z,105.00
2022-12-20T06:53:18.679Z,104.00
2022-12-20T06:54:03.708Z,103.00
2022-12-20T06:54:48.656Z,114.99
2022-12-20T06:55:33.840Z,106.00
2022-12-20T06:56:19.082Z,104.99
2022-12-20T06:57:04.047Z,105.00
2022-12-20T06:57:49.283Z,101.00
2022-12-20T06:58:34.050Z,109.00
2022-12-20T07:00:55.884Z,104.00
2022-12-20T07:01:40.107Z,104.00
2022-12-20T07:02:27.374Z,104.00
2022-12-20T07:03:10.556Z,104.00
2022-12-20T07:03:55.421Z,104.00
2022-12-20T07:04:40.419Z,104.00
2022-12-20T07:05:25.355Z,104.00
2022-12-20T07:06:10.450Z,104.00
2022-12-20T07:06:55.777Z,104.00
2022-12-20T07:07:44.791Z,104.00
2022-12-20T07:08:25.342Z,104.00
2022-12-20T07:09:10.976Z,104.00
2022-12-20T07:09:55.309Z,104.00
2022-12-20T07:10:40.466Z,104.00
2022-12-20T07:11:25.727Z,104.00
2022-12-20T07:12:10.808Z,104.00
2022-12-20T07:12:55.816Z,104.00
2022-12-20T07:13:40.809Z,104.00
2022-12-20T07:14:26.067Z,104.00
2022-12-20T07:15:10.882Z,104.00
2022-12-20T07:15:55.933Z,104.00
2022-12-20T07:16:41.278Z,104.00
2022-12-20T07:17:26.373Z,104.00
2022-12-20T07:18:10.902Z,104.00
2022-12-20T07:18:56.593Z,104.00
2022-12-20T07:19:45.621Z,104.00
2022-12-20T07:20:26.186Z,104.00
2022-12-20T07:21:11.261Z,104.00
2022-12-20T07:21:56.416Z,104.00
2022-12-20T07:22:41.557Z,104.00
2022-12-20T07:23:26.500Z,104.00
2022-12-20T07:24:11.900Z,104.00
2022-12-20T07:24:56.739Z,104.00
2022-12-20T07:25:41.767Z,104.00
2022-12-20T07:26:26.836Z,104.00
2022-12-20T07:27:12.106Z,104.00
2022-12-20T07:27:56.773Z,104.00
2022-12-20T07:28:41.688Z,104.00
2022-12-20T07:29:26.755Z,104.00
2022-12-20T07:30:12.750Z,104.00
2022-12-20T07:30:56.468Z,104.00
2022-12-20T07:31:42.305Z,104.00
2022-12-20T07:32:26.978Z,104.00
2022-12-20T07:33:12.486Z,104.00
2022-12-20T07:33:57.565Z,104.00
2022-12-20T07:34:42.791Z,104.00
2022-12-20T07:35:27.402Z,104.00
2022-12-20T07:36:12.979Z,104.00
2022-12-20T07:36:57.540Z,104.00
2022-12-20T07:37:42.469Z,104.00
2022-12-20T07:38:27.426Z,104.00
2022-12-20T07:39:12.700Z,104.00
2022-12-20T07:39:57.655Z,104.00
2022-12-20T07:40:42.650Z,104.00
2022-12-20T07:41:27.822Z,104.00
2022-12-20T07:42:14.016Z,104.00
2022-12-20T07:42:58.123Z,104.00
2022-12-20T07:43:43.037Z,104.00
2022-12-20T07:44:27.666Z,104.00
2022-12-20T07:45:13.017Z,104.00
2022-12-20T07:45:57.960Z,104.00
2022-12-20T07:46:43.252Z,104.00
2022-12-20T07:47:27.999Z,104.00
2022-12-20T07:48:16.269Z,104.00
2022-12-20T07:48:58.285Z,104.00
2022-12-20T07:49:42.984Z,104.00
2022-12-20T07:50:28.424Z,104.00
2022-12-20T07:51:13.499Z,104.00
2022-12-20T07:51:58.545Z,104.00
2022-12-20T07:52:43.352Z,104.00
2022-12-20T07:53:28.354Z,104.00
2022-12-20T07:54:13.605Z,104.00
2022-12-20T07:54:58.693Z,104.00
2022-12-20T07:55:43.961Z,104.00
2022-12-20T07:56:28.993Z,104.00
2022-12-20T07:57:13.953Z,104.00
2022-12-20T07:57:58.716Z,104.00
2022-12-20T07:58:44.050Z,104.00
2022-12-20T07:59:29.219Z,104.00
2022-12-20T08:00:14.294Z,104.00
2022-12-20T08:00:59.184Z,104.00
2022-12-20T08:01:44.394Z,104.00
2022-12-20T08:02:29.382Z,104.00
2022-12-20T08:03:14.906Z,104.00
2022-12-20T08:03:59.520Z,104.00
2022-12-20T08:04:44.510Z,104.00
2022-12-20T08:05:29.374Z,104.00
2022-12-20T08:06:14.521Z,104.00
2022-12-20T08:06:59.610Z,104.00
2022-12-20T08:07:44.832Z,104.00
2022-12-20T08:08:29.988Z,104.00
2022-12-20T08:09:14.809Z,104.00
2022-12-20T08:10:00.070Z,104.00
2022-12-20T08:10:45.091Z,104.00
2022-12-20T08:11:30.012Z,104.00
2022-12-20T08:12:16.295Z,104.00
2022-12-20T08:13:00.261Z,104.00
2022-12-20T08:13:46.864Z,104.00
2022-12-20T08:14:30.341Z,104.00
2022-12-20T08:15:15.936Z,104.00
2022-12-20T08:16:00.285Z,104.00
2022-12-20T08:16:45.560Z,104.00
2022-12-20T08:17:30.765Z,104.00
2022-12-20T08:18:15.730Z,104.00
2022-12-20T08:19:00.604Z,104.00
2022-12-20T08:19:46.055Z,104.00
2022-12-20T08:20:30.997Z,104.00
2022-12-20T08:21:16.261Z,104.00
2022-12-20T08:22:00.620Z,104.00
2022-12-20T08:22:45.853Z,104.00
2022-12-20T08:23:30.913Z,104.00
2022-12-20T08:24:16.208Z,104.00
2022-12-20T08:25:01.251Z,104.00
2022-12-20T08:25:45.985Z,104.00
2022-12-20T08:26:31.151Z,104.00
2022-12-20T08:27:16.295Z,104.00
2022-12-20T08:28:01.149Z,104.00
2022-12-20T08:28:46.294Z,104.00
2022-12-20T08:29:31.399Z,104.00
2022-12-20T08:30:16.340Z,104.00
2022-12-20T08:31:01.575Z,104.00
2022-12-20T08:31:50.024Z,104.00
2022-12-20T08:32:31.629Z,104.00
2022-12-20T08:33:16.704Z,104.00
2022-12-20T08:34:01.726Z,104.00
2022-12-20T08:34:46.963Z,104.00
2022-12-20T08:35:31.695Z,104.00
2022-12-20T08:36:16.981Z,104.00
2022-12-20T08:37:02.057Z,104.00
2022-12-20T08:37:47.027Z,104.00
2022-12-20T08:38:32.049Z,104.00
2022-12-20T08:39:17.406Z,104.00
2022-12-20T08:40:02.274Z,104.00
2022-12-20T08:40:47.338Z,104.00
2022-12-20T08:41:32.367Z,104.00
2022-12-20T08:42:17.432Z,104.00
2022-12-20T08:43:08.219Z,104.00
2022-12-20T08:43:47.541Z,104.00
2022-12-20T08:44:32.518Z,104.00
2022-12-20T08:45:17.489Z,104.00
2022-12-20T08:46:02.549Z,104.00
2022-12-20T08:46:47.864Z,104.00
2022-12-20T08:47:32.613Z,104.00
2022-12-20T08:48:17.798Z,104.00
2022-12-20T10:40:34.313Z,73.97
2022-12-20T10:41:23.022Z,80.97
2022-12-20T10:41:54.616Z,84.98
2022-12-20T10:42:39.872Z,84.98
2022-12-20T10:43:25.179Z,84.98
2022-12-20T10:44:09.669Z,82.97
2022-12-20T10:44:55.573Z,82.97
2022-12-20T10:45:41.430Z,82.97
2022-12-20T10:46:25.486Z,82.97
2022-12-20T10:47:10.473Z,82.97
2022-12-20T10:47:55.778Z,82.97
2022-12-20T10:48:40.597Z,82.97
2022-12-20T10:49:25.710Z,82.97
2022-12-20T10:50:11.444Z,82.97
2022-12-20T10:50:55.811Z,82.97
2022-12-20T10:51:40.758Z,82.97
2022-12-20T10:52:25.998Z,82.97
2022-12-20T10:53:11.041Z,82.97
2022-12-20T10:53:58.209Z,82.97
2022-12-20T10:54:43.707Z,82.97
2022-12-20T10:55:28.924Z,82.97
2022-12-20T10:56:12.129Z,82.97
2022-12-20T10:56:57.722Z,82.97
2022-12-20T10:57:42.041Z,82.97
2022-12-20T10:58:29.855Z,82.97
2022-12-20T10:59:13.670Z,82.97
2022-12-20T10:59:56.901Z,82.97
2022-12-20T11:00:42.982Z,82.97
2022-12-20T11:01:28.420Z,82.97
2022-12-20T11:02:12.887Z,82.97
2022-12-20T11:02:57.416Z,82.97
2022-12-20T11:03:42.279Z,82.97
2022-12-20T11:04:27.691Z,82.97
2022-12-20T11:05:12.623Z,82.97
2022-12-20T11:05:57.903Z,82.97
2022-12-20T11:06:42.907Z,82.97
2022-12-20T11:07:27.455Z,82.97
2022-12-20T11:08:39.305Z,82.97
2022-12-20T11:09:00.793Z,82.97
2022-12-20T11:09:41.803Z,82.97
2022-12-20T11:10:26.860Z,82.97
2022-12-20T11:11:12.244Z,82.97
2022-12-20T11:11:56.933Z,82.97
2022-12-20T11:12:41.745Z,82.97
2022-12-20T11:13:27.116Z,82.97
2022-12-20T11:14:12.275Z,82.97
2022-12-20T11:14:57.202Z,82.97
2022-12-20T11:15:42.548Z,82.97
2022-12-20T11:16:27.451Z,82.97
2022-12-20T11:29:20.669Z,0.00
2022-12-20T12:27:44.192Z,120.93
2022-12-20T23:48:34.846Z,70.00
2022-12-20T23:49:20.155Z,70.00
2022-12-20T23:50:04.818Z,89.99
2022-12-20T23:50:49.924Z,82.99
2022-12-20T23:51:34.766Z,92.99
2022-12-20T23:52:23.457Z,81.99
2022-12-20T23:53:05.707Z,81.99
2022-12-20T23:53:50.466Z,81.99
2022-12-20T23:54:35.453Z,81.99
2022-12-20T23:55:21.925Z,81.99
2022-12-20T23:56:08.894Z,81.99
2022-12-20T23:56:52.002Z,81.99
2022-12-20T23:57:37.372Z,81.99
2022-12-20T23:58:22.513Z,81.99
2022-12-20T23:59:06.509Z,81.99
2022-12-20T23:59:52.071Z,81.99
